createdAt,value
2022-08-21T00:00:42.385Z,101604.84
2022-08-21T00:05:52.220Z,101598.59
2022-08-21T00:10:53.805Z,101588.59
2022-08-21T00:15:55.379Z,101599.31
2022-08-21T00:20:57.088Z,101579.25
2022-08-21T00:25:58.735Z,101563.88
2022-08-21T00:31:01.089Z,101586.75
2022-08-21T00:36:03.422Z,101560.28
2022-08-21T00:41:36.806Z,101576.88
2022-08-21T00:46:31.118Z,101588.66
2022-08-21T00:51:51.577Z,101570.50
2022-08-21T00:56:59.707Z,101593.13
2022-08-21T01:02:02.882Z,101569.41
2022-08-21T01:07:04.802Z,101576.13
2022-08-21T01:12:06.716Z,101571.09
2022-08-21T01:17:10.076Z,101587.09
2022-08-21T01:22:11.898Z,101576.59
2022-08-21T01:27:13.465Z,101568.63
2022-08-21T01:32:18.648Z,101573.56
2022-08-21T01:37:22.361Z,101562.84
2022-08-21T01:42:24.160Z,101570.06
2022-08-21T01:47:25.883Z,101560.63
2022-08-21T01:52:27.556Z,101555.09
2022-08-21T01:57:29.437Z,101556.97
2022-08-21T02:02:30.954Z,101552.34
2022-08-21T02:07:42.806Z,101542.81
2022-08-21T02:12:44.386Z,101533.03
2022-08-21T02:17:50.839Z,101545.19
2022-08-21T02:22:52.644Z,101519.34
2022-08-21T02:27:55.410Z,101519.28
2022-08-21T02:32:59.285Z,101518.63
2022-08-21T02:38:05.079Z,101547.41
2022-08-21T02:43:08.128Z,101541.22
2022-08-21T02:48:13.357Z,101537.41
2022-08-21T02:53:17.527Z,101538.34
2022-08-21T02:58:23.366Z,101540.69
2022-08-21T03:03:26.290Z,101533.63
2022-08-21T03:08:28.027Z,101519.16
2022-08-21T03:13:29.901Z,101518.28
2022-08-21T03:18:31.747Z,101513.75
2022-08-21T03:23:33.403Z,101491.84
2022-08-21T03:28:35.869Z,101488.88
2022-08-21T03:33:37.535Z,101487.44
2022-08-21T03:38:39.907Z,101494.91
2022-08-21T03:43:41.606Z,101494.00
2022-08-21T03:48:43.514Z,101488.16
2022-08-21T03:53:45.951Z,101494.06
2022-08-21T03:58:47.748Z,101488.75
2022-08-21T04:03:49.315Z,101476.84
2022-08-21T04:08:50.891Z,101467.44
2022-08-21T04:13:52.423Z,101468.56
2022-08-21T04:18:54.067Z,101476.66
2022-08-21T04:23:56.652Z,101486.75
2022-08-21T04:28:58.921Z,101507.19
2022-08-21T04:34:00.426Z,101495.50
2022-08-21T04:39:03.579Z,101505.09
2022-08-21T04:44:05.483Z,101510.41
2022-08-21T04:49:07.018Z,101506.59
2022-08-21T04:54:23.827Z,101509.13
2022-08-21T04:59:31.496Z,101500.84
2022-08-21T05:04:35.380Z,101513.41
2022-08-21T05:09:39.426Z,101513.41
2022-08-21T05:14:40.966Z,101513.66
2022-08-21T05:19:42.504Z,101510.09
2022-08-21T05:24:44.035Z,101506.88
2022-08-21T05:29:45.528Z,101516.31
2022-08-21T05:34:47.648Z,101528.09
2022-08-21T05:40:20.304Z,101527.56
2022-08-21T05:45:10.829Z,101537.06
2022-08-21T05:50:12.413Z,101529.66
2022-08-21T05:55:14.249Z,101540.09
2022-08-21T06:00:17.554Z,101543.75
2022-08-21T06:05:33.405Z,101542.91
2022-08-21T06:10:39.465Z,101539.72
2022-08-21T06:15:41.292Z,101532.03
2022-08-21T06:20:43.512Z,101541.38
2022-08-21T06:25:45.020Z,101540.09
2022-08-21T06:30:46.531Z,101535.03
2022-08-21T06:35:48.120Z,101541.25
2022-08-21T06:40:49.636Z,101537.50
2022-08-21T06:45:51.339Z,101536.75
2022-08-21T06:50:52.980Z,101538.09
2022-08-21T06:55:54.572Z,101543.31
2022-08-21T07:01:00.609Z,101534.22
2022-08-21T07:06:03.391Z,101543.25
2022-08-21T07:11:11.426Z,101538.84
2022-08-21T07:16:13.037Z,101550.59
2022-08-21T07:21:17.773Z,101542.09
2022-08-21T07:26:22.321Z,101547.88
2022-08-21T07:31:25.551Z,101542.31
2022-08-21T07:36:27.125Z,101545.25
2022-08-21T07:41:30.260Z,101541.38
2022-08-21T07:46:31.794Z,101548.19
2022-08-21T07:51:34.553Z,101548.75
2022-08-21T07:56:36.039Z,101541.03
2022-08-21T08:01:37.572Z,101548.63
2022-08-21T08:06:39.124Z,101547.78
2022-08-21T08:11:44.643Z,101542.38
2022-08-21T08:16:46.237Z,101538.00
2022-08-21T08:21:47.780Z,101541.66
2022-08-21T08:26:53.590Z,101532.44
2022-08-21T08:31:55.945Z,101547.22
2022-08-21T08:36:59.582Z,101534.78
2022-08-21T08:42:33.011Z,101536.34
2022-08-21T08:47:32.096Z,101526.84
2022-08-21T08:52:44.071Z,101530.75
2022-08-21T08:57:49.363Z,101527.94
2022-08-21T09:02:59.602Z,101524.53
2022-08-21T09:08:40.531Z,101524.94
2022-08-21T09:14:17.863Z,101517.91
2022-08-21T09:19:40.510Z,101526.03
2022-08-21T09:25:01.889Z,101526.00
2022-08-21T09:30:06.379Z,101533.78
2022-08-21T09:35:08.569Z,101527.81
2022-08-21T09:40:31.633Z,101536.63
2022-08-21T09:45:35.334Z,101540.44
2022-08-21T09:50:37.116Z,101534.63
2022-08-21T09:56:06.076Z,101530.56
2022-08-21T10:01:17.736Z,101536.41
2022-08-21T10:06:28.076Z,101537.28
2022-08-21T10:11:30.586Z,101526.13
2022-08-21T10:16:54.343Z,101525.19
2022-08-21T10:22:20.444Z,101527.84
2022-08-21T10:27:28.782Z,101520.16
2022-08-21T10:32:43.300Z,101529.28
2022-08-21T10:38:09.593Z,101520.38
2022-08-21T10:43:32.040Z,101535.63
2022-08-21T10:48:36.135Z,101541.66
2022-08-21T10:54:06.228Z,101532.06
2022-08-21T10:59:19.591Z,101527.47
2022-08-21T11:04:39.788Z,101522.00
2022-08-21T11:09:55.117Z,101527.91
2022-08-21T11:15:29.708Z,101526.56
2022-08-21T11:20:39.739Z,101532.38
2022-08-21T11:25:47.562Z,101505.41
2022-08-21T11:31:10.428Z,101530.13
2022-08-21T11:36:35.078Z,101540.44
2022-08-21T11:42:27.661Z,101536.53
2022-08-21T11:47:41.458Z,101542.38
2022-08-21T11:52:52.989Z,101552.19
2022-08-21T11:58:05.414Z,101541.88
2022-08-21T12:03:12.396Z,101519.69
2022-08-21T12:08:27.421Z,101538.31
2022-08-21T12:13:40.461Z,101529.47
2022-08-21T12:18:44.613Z,101544.56
2022-08-21T12:23:50.650Z,101540.22
2022-08-21T12:29:03.344Z,101541.69
2022-08-21T12:34:11.431Z,101541.91
2022-08-21T12:39:18.876Z,101550.66
2022-08-21T12:44:35.635Z,101535.00
2022-08-21T12:50:03.459Z,101562.63
2022-08-21T12:55:05.566Z,101546.88
2022-08-21T13:00:15.263Z,101569.56
2022-08-21T13:05:27.992Z,101552.09
2022-08-21T13:10:32.713Z,101567.38
2022-08-21T13:15:37.105Z,101575.63
2022-08-21T13:20:42.166Z,101546.78
2022-08-21T13:25:43.739Z,101562.66
2022-08-21T13:30:48.967Z,101583.28
2022-08-21T13:35:52.957Z,101559.59
2022-08-21T13:41:00.482Z,101558.00
2022-08-21T13:46:03.323Z,101558.38
2022-08-21T13:51:05.465Z,101572.94
2022-08-21T13:56:07.377Z,101558.63
2022-08-21T14:01:28.640Z,101551.09
2022-08-21T14:06:35.625Z,101569.47
2022-08-21T14:11:39.498Z,101559.81
2022-08-21T14:16:47.536Z,101558.13
2022-08-21T14:21:49.412Z,101558.63
2022-08-21T14:26:54.874Z,101567.75
2022-08-21T14:31:59.307Z,101555.00
2022-08-21T14:37:01.191Z,101582.56
2022-08-21T14:42:03.260Z,101578.66
2022-08-21T14:47:05.007Z,101566.84
2022-08-21T14:52:06.674Z,101563.56
2022-08-21T14:57:10.548Z,101581.69
2022-08-21T15:02:12.312Z,101564.06
2022-08-21T15:07:13.908Z,101579.09
2022-08-21T15:12:16.106Z,101558.25
2022-08-21T15:17:18.200Z,101568.38
2022-08-21T15:22:28.052Z,101565.28
2022-08-21T15:27:30.565Z,101583.88
2022-08-21T15:32:32.933Z,101591.28
2022-08-21T15:37:34.710Z,101607.53
2022-08-21T15:42:38.614Z,101583.56
2022-08-21T15:47:44.878Z,101608.16
2022-08-21T15:52:46.603Z,101593.91
2022-08-21T15:57:57.284Z,101578.78
2022-08-21T16:03:01.053Z,101600.97
2022-08-21T16:08:02.918Z,101597.66
2022-08-21T16:13:12.100Z,101589.22
2022-08-21T16:18:14.081Z,101597.59
2022-08-21T16:23:15.704Z,101604.84
2022-08-21T16:28:20.910Z,101567.19
2022-08-21T16:33:33.971Z,101587.28
2022-08-21T16:38:38.196Z,101580.53
2022-08-21T16:43:42.767Z,101591.03
2022-08-21T16:48:45.277Z,101586.72
2022-08-21T16:53:46.902Z,101603.03
2022-08-21T16:58:50.952Z,101590.38
2022-08-21T17:03:53.385Z,101616.41
2022-08-21T17:08:54.909Z,101616.31
2022-08-21T17:13:58.454Z,101623.66
2022-08-21T17:19:00.198Z,101616.88
2022-08-21T17:24:01.790Z,101615.41
2022-08-21T17:29:09.691Z,101604.78
2022-08-21T17:34:12.490Z,101606.34
2022-08-21T17:39:22.536Z,101613.03
2022-08-21T17:44:28.337Z,101622.22
2022-08-21T17:49:29.842Z,101616.50
2022-08-21T17:54:31.391Z,101623.34
2022-08-21T17:59:33.792Z,101618.88
2022-08-21T18:04:36.304Z,101622.09
2022-08-21T18:09:38.263Z,101615.75
2022-08-21T18:14:40.895Z,101620.25
2022-08-21T18:19:48.863Z,101619.00
2022-08-21T18:24:51.686Z,101615.81
2022-08-21T18:29:56.842Z,101612.22
2022-08-21T18:35:03.062Z,101616.06
2022-08-21T18:40:08.501Z,101613.31
2022-08-21T18:45:13.573Z,101621.19
2022-08-21T18:50:24.979Z,101610.97
2022-08-21T18:55:28.324Z,101619.06
2022-08-21T19:00:34.143Z,101619.66
2022-08-21T19:05:36.481Z,101627.53
2022-08-21T19:10:42.767Z,101637.34
2022-08-21T19:15:52.671Z,101638.19
2022-08-21T19:20:54.126Z,101641.38
2022-08-21T19:26:00.823Z,101636.69
2022-08-21T19:31:25.928Z,101637.94
2022-08-21T19:36:27.566Z,101610.59
2022-08-21T19:41:32.878Z,101625.53
2022-08-21T19:46:37.874Z,101627.00
2022-08-21T19:51:40.247Z,101634.22
2022-08-21T19:56:42.477Z,101651.72
2022-08-21T20:01:44.375Z,101649.75
2022-08-21T20:06:47.092Z,101656.34
2022-08-21T20:11:55.405Z,101644.34
2022-08-21T20:17:02.444Z,101648.78
2022-08-21T20:22:05.673Z,101636.38
2022-08-21T20:27:08.226Z,101662.59
2022-08-21T20:32:12.022Z,101655.06
2022-08-21T20:42:54.641Z,101648.53
2022-08-21T20:48:04.875Z,101668.63
2022-08-21T20:53:20.545Z,101645.81
2022-08-21T20:58:37.379Z,101667.41
2022-08-21T21:03:46.800Z,101660.59
2022-08-21T21:09:06.474Z,101652.41
2022-08-21T21:14:14.510Z,101662.13
2022-08-21T21:19:37.187Z,101638.97
2022-08-21T21:25:11.383Z,101657.44
2022-08-21T21:30:20.923Z,101656.94
2022-08-21T21:35:32.559Z,101644.00
2022-08-21T21:41:16.310Z,101645.22
2022-08-21T21:46:33.087Z,101641.72
2022-08-21T21:51:46.699Z,101668.63
2022-08-21T21:57:09.146Z,101645.97
2022-08-21T22:02:54.993Z,101678.63
2022-08-21T22:08:02.850Z,101674.56
2022-08-21T22:13:26.295Z,101651.25
2022-08-21T22:18:37.448Z,101658.94
2022-08-21T22:23:50.852Z,101669.75
2022-08-21T22:28:53.466Z,101664.81
2022-08-21T22:34:18.415Z,101665.66
2022-08-21T22:39:38.986Z,101681.63
2022-08-21T22:44:56.298Z,101654.94
2022-08-21T22:50:04.330Z,101653.09
2022-08-21T22:55:43.762Z,101654.28
2022-08-21T23:00:54.565Z,101670.34
2022-08-21T23:05:56.128Z,101652.50
2022-08-21T23:11:12.621Z,101637.59
2022-08-21T23:16:33.055Z,101656.19
2022-08-21T23:21:52.785Z,101660.59
2022-08-21T23:27:09.528Z,101642.53
2022-08-21T23:32:10.945Z,101655.59
2022-08-21T23:43:02.107Z,101651.81
2022-08-21T23:48:37.475Z,101650.28
2022-08-21T23:53:53.004Z,101653.72
2022-08-21T23:59:13.080Z,101655.72
